sensor_id;sensor_type;location;lat;lon;timestamp;P1;durP1;ratioP1;P2;durP2;ratioP2
56343;SDS011;42245;42.058;24.700;2023-02-20T15:19:34;1.13;;;0.70;;
56343;SDS011;42245;42.058;24.700;2023-02-20T15:22:02;1.35;;;0.82;;
56343;SDS011;42245;42.058;24.700;2023-02-20T15:24:37;5.97;;;0.80;;
56343;SDS011;42245;42.058;24.700;2023-02-20T15:27:14;4.07;;;0.90;;
56343;SDS011;42245;42.058;24.700;2023-02-20T15:29:42;5.43;;;0.90;;
56343;SDS011;42245;42.058;24.700;2023-02-20T15:32:21;2.08;;;1.00;;
56343;SDS011;42245;42.058;24.700;2023-02-20T15:34:49;4.55;;;0.88;;
56343;SDS011;42245;42.058;24.700;2023-02-20T15:39:46;4.97;;;0.70;;
56343;SDS011;42245;42.058;24.700;2023-02-20T15:42:13;5.40;;;1.38;;
56343;SDS011;42245;42.058;24.700;2023-02-20T15:44:39;1.27;;;0.82;;
56343;SDS011;42245;42.058;24.700;2023-02-20T15:47:04;2.60;;;0.90;;
56343;SDS011;42245;42.058;24.700;2023-02-20T15:49:29;2.00;;;0.88;;
56343;SDS011;42245;42.058;24.700;2023-02-20T15:51:55;4.20;;;1.05;;
56343;SDS011;42245;42.058;24.700;2023-02-20T15:54:20;7.90;;;0.95;;
56343;SDS011;42245;42.058;24.700;2023-02-20T15:56:46;3.33;;;0.90;;
56343;SDS011;42245;42.058;24.700;2023-02-20T15:59:11;1.60;;;1.02;;
56343;SDS011;42245;42.058;24.700;2023-02-20T16:01:37;3.45;;;1.10;;
56343;SDS011;42245;42.058;24.700;2023-02-20T16:04:04;1.30;;;0.88;;
56343;SDS011;42245;42.058;24.700;2023-02-20T16:06:31;1.73;;;1.08;;
56343;SDS011;42245;42.058;24.700;2023-02-20T16:08:56;4.20;;;0.90;;
56343;SDS011;42245;42.058;24.700;2023-02-20T16:11:23;3.00;;;0.90;;
56343;SDS011;42245;42.058;24.700;2023-02-20T16:13:56;1.27;;;0.80;;
56343;SDS011;42245;42.058;24.700;2023-02-20T16:16:29;1.00;;;0.82;;
56343;SDS011;42245;42.058;24.700;2023-02-20T16:18:55;2.95;;;0.70;;
56343;SDS011;42245;42.058;24.700;2023-02-20T16:21:22;1.27;;;0.80;;
56343;SDS011;42245;42.058;24.700;2023-02-20T16:23:48;2.30;;;0.93;;
56343;SDS011;42245;42.058;24.700;2023-02-20T16:26:15;1.80;;;1.00;;
56343;SDS011;42245;42.058;24.700;2023-02-20T16:28:41;2.42;;;0.90;;
56343;SDS011;42245;42.058;24.700;2023-02-20T16:31:08;4.30;;;1.20;;
56343;SDS011;42245;42.058;24.700;2023-02-20T16:33:35;1.63;;;1.05;;
56343;SDS011;42245;42.058;24.700;2023-02-20T16:36:01;4.22;;;1.10;;
56343;SDS011;42245;42.058;24.700;2023-02-20T16:38:26;5.05;;;1.25;;
56343;SDS011;42245;42.058;24.700;2023-02-20T16:40:52;2.83;;;1.10;;
56343;SDS011;42245;42.058;24.700;2023-02-20T16:43:19;2.33;;;1.30;;
56343;SDS011;42245;42.058;24.700;2023-02-20T16:45:45;4.68;;;1.98;;
56343;SDS011;42245;42.058;24.700;2023-02-20T16:48:14;1.40;;;1.20;;
56343;SDS011;42245;42.058;24.700;2023-02-20T16:50:41;5.40;;;1.65;;
56343;SDS011;42245;42.058;24.700;2023-02-20T16:53:08;1.73;;;1.30;;
56343;SDS011;42245;42.058;24.700;2023-02-20T16:55:35;5.55;;;1.75;;
56343;SDS011;42245;42.058;24.700;2023-02-20T16:58:02;4.78;;;1.77;;
56343;SDS011;42245;42.058;24.700;2023-02-20T17:00:33;3.45;;;1.77;;
56343;SDS011;42245;42.058;24.700;2023-02-20T17:02:59;3.47;;;1.80;;
56343;SDS011;42245;42.058;24.700;2023-02-20T17:05:30;4.40;;;2.80;;
56343;SDS011;42245;42.058;24.700;2023-02-20T17:07:56;4.57;;;2.53;;
56343;SDS011;42245;42.058;24.700;2023-02-20T17:10:22;4.25;;;2.90;;
56343;SDS011;42245;42.058;24.700;2023-02-20T17:12:48;5.18;;;2.65;;
56343;SDS011;42245;42.058;24.700;2023-02-20T17:15:15;3.47;;;1.60;;
56343;SDS011;42245;42.058;24.700;2023-02-20T17:17:42;4.00;;;1.90;;
56343;SDS011;42245;42.058;24.700;2023-02-20T17:20:12;3.35;;;2.05;;
56343;SDS011;42245;42.058;24.700;2023-02-20T17:22:42;3.58;;;1.73;;
56343;SDS011;42245;42.058;24.700;2023-02-20T17:25:09;3.78;;;1.50;;
56343;SDS011;42245;42.058;24.700;2023-02-20T17:27:38;4.88;;;1.30;;
56343;SDS011;42245;42.058;24.700;2023-02-20T17:30:04;7.18;;;2.10;;
56343;SDS011;42245;42.058;24.700;2023-02-20T17:32:29;4.78;;;1.70;;
56343;SDS011;42245;42.058;24.700;2023-02-20T17:34:55;6.28;;;3.85;;
56343;SDS011;42245;42.058;24.700;2023-02-20T17:37:20;4.97;;;1.60;;
56343;SDS011;42245;42.058;24.700;2023-02-20T17:39:47;5.72;;;1.55;;
56343;SDS011;42245;42.058;24.700;2023-02-20T17:42:12;3.85;;;1.50;;
56343;SDS011;42245;42.058;24.700;2023-02-20T17:44:38;4.55;;;1.42;;
56343;SDS011;42245;42.058;24.700;2023-02-20T17:47:04;4.55;;;1.50;;
56343;SDS011;42245;42.058;24.700;2023-02-20T17:49:32;2.67;;;1.80;;
56343;SDS011;42245;42.058;24.700;2023-02-20T17:51:57;4.53;;;1.42;;
56343;SDS011;42245;42.058;24.700;2023-02-20T17:54:24;6.28;;;1.50;;
56343;SDS011;42245;42.058;24.700;2023-02-20T17:56:50;5.72;;;1.55;;
56343;SDS011;42245;42.058;24.700;2023-02-20T17:59:15;2.13;;;1.33;;
56343;SDS011;42245;42.058;24.700;2023-02-20T18:01:41;3.08;;;1.50;;
56343;SDS011;42245;42.058;24.700;2023-02-20T18:04:07;2.08;;;1.35;;
56343;SDS011;42245;42.058;24.700;2023-02-20T18:06:33;2.25;;;1.55;;
56343;SDS011;42245;42.058;24.700;2023-02-20T18:08:59;2.35;;;1.30;;
56343;SDS011;42245;42.058;24.700;2023-02-20T18:11:25;2.03;;;1.20;;
56343;SDS011;42245;42.058;24.700;2023-02-20T18:13:51;2.40;;;1.40;;
56343;SDS011;42245;42.058;24.700;2023-02-20T18:16:17;4.85;;;1.50;;
56343;SDS011;42245;42.058;24.700;2023-02-20T18:18:42;3.72;;;1.38;;
56343;SDS011;42245;42.058;24.700;2023-02-20T18:21:17;2.75;;;1.30;;
56343;SDS011;42245;42.058;24.700;2023-02-20T18:23:47;2.63;;;1.40;;
56343;SDS011;42245;42.058;24.700;2023-02-20T18:26:13;2.90;;;1.25;;
56343;SDS011;42245;42.058;24.700;2023-02-20T18:28:39;2.53;;;1.38;;
56343;SDS011;42245;42.058;24.700;2023-02-20T18:31:05;2.00;;;1.23;;
56343;SDS011;42245;42.058;24.700;2023-02-20T18:33:31;2.40;;;1.40;;
56343;SDS011;42245;42.058;24.700;2023-02-20T18:35:56;2.35;;;1.33;;
56343;SDS011;42245;42.058;24.700;2023-02-20T18:38:21;2.50;;;1.30;;
56343;SDS011;42245;42.058;24.700;2023-02-20T18:40:47;1.38;;;1.20;;
56343;SDS011;42245;42.058;24.700;2023-02-20T18:43:13;5.53;;;1.38;;
56343;SDS011;42245;42.058;24.700;2023-02-20T18:45:39;5.18;;;1.40;;
56343;SDS011;42245;42.058;24.700;2023-02-20T18:48:05;1.80;;;1.25;;
56343;SDS011;42245;42.058;24.700;2023-02-20T18:50:30;3.42;;;1.40;;
56343;SDS011;42245;42.058;24.700;2023-02-20T18:52:56;2.83;;;1.38;;
56343;SDS011;42245;42.058;24.700;2023-02-20T18:55:22;2.65;;;1.40;;
56343;SDS011;42245;42.058;24.700;2023-02-20T18:57:48;2.58;;;1.63;;
56343;SDS011;42245;42.058;24.700;2023-02-20T19:00:19;16.98;;;2.42;;
56343;SDS011;42245;42.058;24.700;2023-02-20T19:02:49;2.63;;;1.20;;
56343;SDS011;42245;42.058;24.700;2023-02-20T19:05:15;3.60;;;1.20;;
56343;SDS011;42245;42.058;24.700;2023-02-20T19:07:44;1.90;;;1.13;;
56343;SDS011;42245;42.058;24.700;2023-02-20T19:10:11;3.70;;;1.48;;
56343;SDS011;42245;42.058;24.700;2023-02-20T19:12:46;2.15;;;1.10;;
56343;SDS011;42245;42.058;24.700;2023-02-20T19:15:12;1.92;;;1.20;;
56343;SDS011;42245;42.058;24.700;2023-02-20T19:17:39;1.95;;;1.20;;
56343;SDS011;42245;42.058;24.700;2023-02-20T19:20:05;1.98;;;1.30;;
56343;SDS011;42245;42.058;24.700;2023-02-20T19:22:32;2.45;;;1.15;;
56343;SDS011;42245;42.058;24.700;2023-02-20T19:24:57;1.92;;;1.10;;
56343;SDS011;42245;42.058;24.700;2023-02-20T19:27:25;2.63;;;1.15;;
56343;SDS011;42245;42.058;24.700;2023-02-20T19:29:51;1.30;;;0.95;;
56343;SDS011;42245;42.058;24.700;2023-02-20T19:32:16;4.00;;;1.15;;
56343;SDS011;42245;42.058;24.700;2023-02-20T19:34:43;1.23;;;1.00;;
56343;SDS011;42245;42.058;24.700;2023-02-20T19:37:09;2.50;;;1.10;;
56343;SDS011;42245;42.058;24.700;2023-02-20T19:39:34;1.25;;;1.05;;
56343;SDS011;42245;42.058;24.700;2023-02-20T19:42:00;1.58;;;1.40;;
56343;SDS011;42245;42.058;24.700;2023-02-20T19:44:25;1.67;;;1.23;;
56343;SDS011;42245;42.058;24.700;2023-02-20T19:46:52;3.10;;;1.88;;
56343;SDS011;42245;42.058;24.700;2023-02-20T19:49:18;2.08;;;1.10;;
56343;SDS011;42245;42.058;24.700;2023-02-20T19:51:47;1.73;;;1.10;;
56343;SDS011;42245;42.058;24.700;2023-02-20T19:54:14;2.67;;;1.42;;
56343;SDS011;42245;42.058;24.700;2023-02-20T19:56:47;2.20;;;1.38;;
56343;SDS011;42245;42.058;24.700;2023-02-20T19:59:14;2.20;;;1.00;;
56343;SDS011;42245;42.058;24.700;2023-02-20T20:01:39;1.10;;;0.90;;
56343;SDS011;42245;42.058;24.700;2023-02-20T20:04:05;1.73;;;1.27;;
56343;SDS011;42245;42.058;24.700;2023-02-20T20:06:30;2.33;;;1.20;;
56343;SDS011;42245;42.058;24.700;2023-02-20T20:08:55;2.55;;;1.50;;
56343;SDS011;42245;42.058;24.700;2023-02-20T20:11:21;1.65;;;1.10;;
56343;SDS011;42245;42.058;24.700;2023-02-20T20:13:47;1.45;;;1.10;;
56343;SDS011;42245;42.058;24.700;2023-02-20T20:16:12;4.47;;;1.00;;
56343;SDS011;42245;42.058;24.700;2023-02-20T20:18:37;2.25;;;1.00;;
56343;SDS011;42245;42.058;24.700;2023-02-20T20:21:03;1.98;;;1.13;;
56343;SDS011;42245;42.058;24.700;2023-02-20T20:23:28;2.15;;;1.13;;
56343;SDS011;42245;42.058;24.700;2023-02-20T20:25:54;1.25;;;0.93;;
56343;SDS011;42245;42.058;24.700;2023-02-20T20:28:19;1.55;;;1.10;;
56343;SDS011;42245;42.058;24.700;2023-02-20T20:30:44;1.48;;;0.90;;
56343;SDS011;42245;42.058;24.700;2023-02-20T20:33:10;1.58;;;1.10;;
56343;SDS011;42245;42.058;24.700;2023-02-20T20:35:35;1.05;;;0.90;;
56343;SDS011;42245;42.058;24.700;2023-02-20T20:38:01;1.20;;;1.10;;
56343;SDS011;42245;42.058;24.700;2023-02-20T20:40:27;3.25;;;1.17;;
56343;SDS011;42245;42.058;24.700;2023-02-20T20:42:53;1.90;;;1.13;;
56343;SDS011;42245;42.058;24.700;2023-02-20T20:45:19;1.48;;;1.10;;
56343;SDS011;42245;42.058;24.700;2023-02-20T20:47:45;1.80;;;1.10;;
56343;SDS011;42245;42.058;24.700;2023-02-20T20:50:13;1.65;;;1.10;;
56343;SDS011;42245;42.058;24.700;2023-02-20T20:52:40;3.03;;;1.10;;
56343;SDS011;42245;42.058;24.700;2023-02-20T20:55:05;1.50;;;1.10;;
56343;SDS011;42245;42.058;24.700;2023-02-20T20:57:32;1.67;;;0.93;;
56343;SDS011;42245;42.058;24.700;2023-02-20T21:00:06;0.80;;;0.80;;
56343;SDS011;42245;42.058;24.700;2023-02-20T21:02:33;1.23;;;0.88;;
56343;SDS011;42245;42.058;24.700;2023-02-20T21:04:58;1.65;;;0.93;;
56343;SDS011;42245;42.058;24.700;2023-02-20T21:07:24;1.13;;;0.80;;
56343;SDS011;42245;42.058;24.700;2023-02-20T21:09:49;1.10;;;0.90;;
56343;SDS011;42245;42.058;24.700;2023-02-20T21:12:15;1.23;;;0.90;;
56343;SDS011;42245;42.058;24.700;2023-02-20T21:14:41;3.22;;;0.80;;
56343;SDS011;42245;42.058;24.700;2023-02-20T21:17:07;1.75;;;1.08;;
56343;SDS011;42245;42.058;24.700;2023-02-20T21:19:34;1.20;;;1.00;;
56343;SDS011;42245;42.058;24.700;2023-02-20T21:21:59;1.33;;;0.80;;
56343;SDS011;42245;42.058;24.700;2023-02-20T21:24:25;1.48;;;0.95;;
56343;SDS011;42245;42.058;24.700;2023-02-20T21:26:50;2.45;;;0.70;;
56343;SDS011;42245;42.058;24.700;2023-02-20T21:29:16;1.42;;;1.00;;
56343;SDS011;42245;42.058;24.700;2023-02-20T21:31:42;2.05;;;0.90;;
56343;SDS011;42245;42.058;24.700;2023-02-20T21:34:08;0.88;;;0.60;;
56343;SDS011;42245;42.058;24.700;2023-02-20T21:36:34;0.95;;;0.70;;
56343;SDS011;42245;42.058;24.700;2023-02-20T21:38:59;1.20;;;0.70;;
56343;SDS011;42245;42.058;24.700;2023-02-20T21:41:25;0.68;;;0.60;;
56343;SDS011;42245;42.058;24.700;2023-02-20T21:44:17;1.80;;;0.77;;
56343;SDS011;42245;42.058;24.700;2023-02-20T21:49:28;2.00;;;0.70;;
56343;SDS011;42245;42.058;24.700;2023-02-20T21:51:55;0.90;;;0.60;;
56343;SDS011;42245;42.058;24.700;2023-02-20T21:54:24;0.98;;;0.70;;
56343;SDS011;42245;42.058;24.700;2023-02-20T21:56:51;1.05;;;0.70;;
56343;SDS011;42245;42.058;24.700;2023-02-20T21:59:17;0.60;;;0.50;;
56343;SDS011;42245;42.058;24.700;2023-02-20T22:01:43;1.02;;;0.70;;
56343;SDS011;42245;42.058;24.700;2023-02-20T22:04:08;1.25;;;0.60;;
56343;SDS011;42245;42.058;24.700;2023-02-20T22:06:35;0.65;;;0.60;;
56343;SDS011;42245;42.058;24.700;2023-02-20T22:09:00;0.82;;;0.70;;
56343;SDS011;42245;42.058;24.700;2023-02-20T22:11:45;0.95;;;0.60;;
56343;SDS011;42245;42.058;24.700;2023-02-20T22:14:29;0.70;;;0.60;;
56343;SDS011;42245;42.058;24.700;2023-02-20T22:17:12;1.95;;;0.60;;
56343;SDS011;42245;42.058;24.700;2023-02-20T22:19:57;0.70;;;0.70;;
56343;SDS011;42245;42.058;24.700;2023-02-20T22:22:41;1.20;;;0.70;;
56343;SDS011;42245;42.058;24.700;2023-02-20T22:25:25;1.60;;;0.70;;
56343;SDS011;42245;42.058;24.700;2023-02-20T22:28:10;0.50;;;0.50;;
56343;SDS011;42245;42.058;24.700;2023-02-20T22:30:56;0.63;;;0.60;;
56343;SDS011;42245;42.058;24.700;2023-02-20T22:33:40;0.70;;;0.70;;
56343;SDS011;42245;42.058;24.700;2023-02-20T22:36:24;1.73;;;0.70;;
56343;SDS011;42245;42.058;24.700;2023-02-20T22:39:10;1.15;;;0.60;;
56343;SDS011;42245;42.058;24.700;2023-02-20T22:41:55;0.80;;;0.65;;
56343;SDS011;42245;42.058;24.700;2023-02-20T22:44:39;1.75;;;0.60;;
56343;SDS011;42245;42.058;24.700;2023-02-20T22:47:23;1.00;;;0.63;;
56343;SDS011;42245;42.058;24.700;2023-02-20T22:50:07;1.15;;;0.70;;
56343;SDS011;42245;42.058;24.700;2023-02-20T22:52:50;1.15;;;0.80;;
56343;SDS011;42245;42.058;24.700;2023-02-20T22:55:34;0.80;;;0.80;;
56343;SDS011;42245;42.058;24.700;2023-02-20T22:58:18;0.95;;;0.77;;
56343;SDS011;42245;42.058;24.700;2023-02-20T23:01:02;0.63;;;0.52;;
56343;SDS011;42245;42.058;24.700;2023-02-20T23:03:46;1.75;;;0.68;;
56343;SDS011;42245;42.058;24.700;2023-02-20T23:06:30;1.05;;;0.90;;
56343;SDS011;42245;42.058;24.700;2023-02-20T23:09:14;0.68;;;0.65;;
56343;SDS011;42245;42.058;24.700;2023-02-20T23:11:58;0.80;;;0.60;;
56343;SDS011;42245;42.058;24.700;2023-02-20T23:14:42;3.38;;;3.10;;
56343;SDS011;42245;42.058;24.700;2023-02-20T23:17:26;1.17;;;0.90;;
56343;SDS011;42245;42.058;24.700;2023-02-20T23:20:14;0.98;;;0.60;;
56343;SDS011;42245;42.058;24.700;2023-02-20T23:23:01;0.82;;;0.70;;
56343;SDS011;42245;42.058;24.700;2023-02-20T23:25:45;0.90;;;0.60;;
56343;SDS011;42245;42.058;24.700;2023-02-20T23:28:29;0.50;;;0.50;;
56343;SDS011;42245;42.058;24.700;2023-02-20T23:31:13;0.65;;;0.65;;
56343;SDS011;42245;42.058;24.700;2023-02-20T23:33:58;1.60;;;0.80;;
56343;SDS011;42245;42.058;24.700;2023-02-20T23:36:45;0.75;;;0.60;;
56343;SDS011;42245;42.058;24.700;2023-02-20T23:39:30;1.80;;;0.77;;
56343;SDS011;42245;42.058;24.700;2023-02-20T23:42:15;1.13;;;0.50;;
56343;SDS011;42245;42.058;24.700;2023-02-20T23:45:00;1.13;;;0.60;;
56343;SDS011;42245;42.058;24.700;2023-02-20T23:47:44;3.33;;;0.60;;
56343;SDS011;42245;42.058;24.700;2023-02-20T23:50:28;0.55;;;0.55;;
56343;SDS011;42245;42.058;24.700;2023-02-20T23:53:12;0.47;;;0.47;;
56343;SDS011;42245;42.058;24.700;2023-02-20T23:55:56;0.50;;;0.50;;
56343;SDS011;42245;42.058;24.700;2023-02-20T23:58:40;0.70;;;0.50;;
